createdAt,value
2022-10-01T00:02:28.614Z,54.08
2022-10-01T00:05:20.351Z,54.13
2022-10-01T00:08:02.628Z,51.42
2022-10-01T00:10:52.302Z,50.47
2022-10-01T00:13:41.303Z,60.03
2022-10-01T00:16:27.597Z,50.55
2022-10-01T00:19:16.203Z,55.38
2022-10-01T00:22:04.588Z,50.47
2022-10-01T00:24:47.285Z,55.25
2022-10-01T00:27:30.556Z,52.83
2022-10-01T00:30:20.216Z,50.97
2022-10-01T00:33:08.607Z,54.47
2022-10-01T00:35:51.290Z,57.10
2022-10-01T00:38:41.394Z,52.67
2022-10-01T00:41:25.311Z,56.97
2022-10-01T00:44:30.321Z,44.67
2022-10-01T00:47:47.303Z,52.10
2022-10-01T00:50:35.177Z,56.95
2022-10-01T00:53:26.326Z,48.67
2022-10-01T00:56:22.150Z,58.63
2022-10-01T00:59:11.328Z,54.58
2022-10-01T01:01:53.794Z,55.80
2022-10-01T01:04:42.293Z,56.03
2022-10-01T01:07:24.721Z,55.67
2022-10-01T01:10:15.198Z,55.92
2022-10-01T01:13:03.598Z,54.58
2022-10-01T01:15:53.324Z,56.50
2022-10-01T01:19:06.312Z,51.03
2022-10-01T01:22:01.298Z,53.83
2022-10-01T01:25:07.785Z,47.00
2022-10-01T01:28:17.389Z,54.65
2022-10-01T01:31:11.618Z,53.33
2022-10-01T01:33:58.295Z,47.55
2022-10-01T01:36:48.246Z,53.45
2022-10-01T01:39:41.299Z,65.38
2022-10-01T01:42:38.303Z,51.85
2022-10-01T01:45:33.360Z,51.08
2022-10-01T01:48:17.859Z,65.70
2022-10-01T01:51:28.313Z,66.70
2022-10-01T01:54:20.109Z,51.88
2022-10-01T01:57:17.338Z,60.72
2022-10-01T01:59:59.472Z,60.45
2022-10-01T02:02:50.491Z,64.07
2022-10-01T02:05:49.599Z,62.45
2022-10-01T02:08:43.347Z,66.47
2022-10-01T02:11:43.859Z,61.28
2022-10-01T02:14:40.299Z,52.85
2022-10-01T02:18:19.610Z,57.45
2022-10-01T02:21:29.183Z,51.25
2022-10-01T02:24:47.604Z,58.55
2022-10-01T02:27:45.354Z,63.35
2022-10-01T02:30:36.293Z,62.20
2022-10-01T02:33:21.587Z,65.03
2022-10-01T02:36:16.307Z,48.58
2022-10-01T02:39:02.615Z,49.70
2022-10-01T02:41:54.275Z,49.67
2022-10-01T02:44:50.280Z,44.38
2022-10-01T02:47:45.693Z,44.03
2022-10-01T02:50:34.314Z,43.65
2022-10-01T02:53:49.312Z,44.72
2022-10-01T02:56:56.049Z,53.40
2022-10-01T02:59:48.329Z,55.90
2022-10-01T03:02:30.704Z,47.05
2022-10-01T03:05:19.310Z,46.20
2022-10-01T03:08:01.563Z,48.28
2022-10-01T03:10:50.211Z,62.58
2022-10-01T03:13:32.555Z,49.78
2022-10-01T03:16:21.393Z,51.33
2022-10-01T03:19:03.609Z,50.80
2022-10-01T03:21:52.313Z,53.10
2022-10-01T03:24:34.580Z,54.15
2022-10-01T03:27:23.277Z,48.50
2022-10-01T03:30:06.770Z,50.05
2022-10-01T03:32:55.270Z,52.13
2022-10-01T03:35:44.203Z,44.63
2022-10-01T03:38:32.599Z,56.65
2022-10-01T03:41:14.297Z,44.60
2022-10-01T03:44:00.400Z,39.00
2022-10-01T03:46:49.178Z,32.38
2022-10-01T03:49:38.213Z,43.10
2022-10-01T03:52:21.470Z,39.42
2022-10-01T03:55:10.211Z,39.72
2022-10-01T03:58:06.135Z,38.08
2022-10-01T04:00:57.303Z,36.90
2022-10-01T04:03:40.987Z,35.95
2022-10-01T04:06:31.341Z,43.17
2022-10-01T04:09:13.722Z,41.83
2022-10-01T04:12:03.295Z,35.67
2022-10-01T04:14:45.587Z,49.85
2022-10-01T04:17:34.301Z,33.47
2022-10-01T04:20:24.194Z,42.03
2022-10-01T04:23:13.362Z,39.05
2022-10-01T04:25:55.574Z,39.72
2022-10-01T04:28:44.295Z,36.03
2022-10-01T04:31:26.808Z,37.95
2022-10-01T04:34:16.217Z,30.38
2022-10-01T04:37:05.288Z,30.08
2022-10-01T04:39:54.304Z,41.08
2022-10-01T04:42:36.595Z,24.67
2022-10-01T04:45:25.277Z,23.40
2022-10-01T04:48:07.814Z,32.03
2022-10-01T04:50:56.273Z,28.50
2022-10-01T04:53:38.737Z,32.28
2022-10-01T04:56:27.305Z,27.05
2022-10-01T04:59:22.219Z,31.35
2022-10-01T05:02:11.311Z,35.08
2022-10-01T05:04:53.563Z,36.72
2022-10-01T05:07:43.294Z,40.80
2022-10-01T05:10:29.739Z,41.30
2022-10-01T05:13:19.226Z,33.65
2022-10-01T05:16:03.398Z,30.65
2022-10-01T05:18:52.301Z,37.13
2022-10-01T05:21:34.863Z,31.92
2022-10-01T05:24:34.293Z,37.00
2022-10-01T05:27:16.618Z,38.45
2022-10-01T05:30:05.289Z,39.58
2022-10-01T05:32:47.670Z,33.58
2022-10-01T05:35:37.276Z,30.45
2022-10-01T05:38:19.683Z,32.95
2022-10-01T05:41:08.514Z,34.97
2022-10-01T05:43:50.750Z,24.83
2022-10-01T05:46:40.333Z,26.85
2022-10-01T05:49:22.707Z,25.80
2022-10-01T05:52:12.347Z,28.67
2022-10-01T05:54:54.603Z,32.97
2022-10-01T05:57:43.359Z,34.40
2022-10-01T06:00:25.671Z,33.72
2022-10-01T06:03:16.502Z,23.38
2022-10-01T06:05:58.753Z,27.95
2022-10-01T06:08:47.333Z,25.02
2022-10-01T06:11:29.873Z,21.23
2022-10-01T06:14:18.331Z,32.50
2022-10-01T06:17:03.627Z,29.30
2022-10-01T06:19:52.233Z,26.45
2022-10-01T06:22:35.094Z,24.88
2022-10-01T06:25:24.296Z,19.80
2022-10-01T06:28:14.488Z,21.55
2022-10-01T06:31:03.334Z,20.92
2022-10-01T06:33:45.647Z,27.60
2022-10-01T06:36:34.351Z,24.95
2022-10-01T06:39:16.865Z,22.90
2022-10-01T06:42:05.282Z,24.20
2022-10-01T06:44:54.295Z,30.17
2022-10-01T06:47:43.285Z,24.73
2022-10-01T06:50:25.738Z,24.83
2022-10-01T06:53:14.301Z,19.95
2022-10-01T06:55:56.697Z,33.70
2022-10-01T06:58:45.366Z,28.95
2022-10-01T07:01:34.672Z,29.42
2022-10-01T07:04:22.666Z,22.02
2022-10-01T07:07:05.371Z,22.20
2022-10-01T07:09:53.826Z,25.80
2022-10-01T07:12:36.330Z,20.70
2022-10-01T07:15:27.339Z,30.42
2022-10-01T07:18:12.516Z,21.02
2022-10-01T07:21:01.274Z,23.05
2022-10-01T07:23:51.362Z,33.03
2022-10-01T07:26:40.646Z,25.40
2022-10-01T07:29:22.332Z,31.20
2022-10-01T07:32:09.645Z,29.25
2022-10-01T07:34:58.704Z,19.63
2022-10-01T07:37:46.600Z,21.80
2022-10-01T07:40:29.286Z,21.73
2022-10-01T07:43:11.788Z,21.50
2022-10-01T07:46:02.405Z,22.75
2022-10-01T07:48:54.281Z,18.88
2022-10-01T07:51:44.341Z,28.13
2022-10-01T07:54:27.563Z,30.90
2022-10-01T07:57:16.315Z,27.83
2022-10-01T08:00:05.804Z,22.98
2022-10-01T08:02:47.385Z,25.85
2022-10-01T08:05:43.381Z,16.70
2022-10-01T08:08:25.819Z,28.98
2022-10-01T08:11:17.367Z,20.15
2022-10-01T08:14:06.260Z,21.67
2022-10-01T08:16:55.457Z,27.73
2022-10-01T08:19:38.620Z,20.23
2022-10-01T08:22:27.237Z,25.60
2022-10-01T08:25:09.668Z,31.75
2022-10-01T08:27:58.611Z,31.52
2022-10-01T08:30:47.311Z,22.25
2022-10-01T08:33:29.595Z,18.73
2022-10-01T08:36:20.358Z,19.93
2022-10-01T08:39:10.234Z,22.27
2022-10-01T08:42:17.068Z,16.65
2022-10-01T08:45:02.920Z,26.17
2022-10-01T08:47:57.298Z,20.13
2022-10-01T08:51:01.802Z,19.92
2022-10-01T08:56:46.442Z,23.65
2022-10-01T09:00:16.402Z,24.20
2022-10-01T09:02:59.713Z,30.95
2022-10-01T09:09:02.678Z,20.25
2022-10-01T09:12:23.338Z,28.30
2022-10-01T09:15:38.266Z,19.15
2022-10-01T09:18:45.187Z,20.67
2022-10-01T09:21:55.259Z,27.38
2022-10-01T09:25:01.296Z,19.40
2022-10-01T09:27:46.837Z,24.15
2022-10-01T09:30:37.260Z,21.63
2022-10-01T09:33:34.412Z,24.92
2022-10-01T09:36:53.600Z,17.88
2022-10-01T09:39:48.274Z,10.90
2022-10-01T09:42:31.770Z,19.27
2022-10-01T09:45:21.218Z,26.80
2022-10-01T09:48:27.688Z,21.55
2022-10-01T09:51:21.296Z,12.10
2022-10-01T09:54:19.435Z,17.23
2022-10-01T09:57:15.346Z,15.13
2022-10-01T10:00:15.728Z,22.65
2022-10-01T10:03:00.510Z,19.60
2022-10-01T10:05:47.711Z,22.40
2022-10-01T10:08:53.197Z,16.38
2022-10-01T10:11:42.187Z,16.13
2022-10-01T10:14:29.741Z,16.52
2022-10-01T10:17:24.244Z,14.35
2022-10-01T10:20:06.634Z,20.77
2022-10-01T10:22:57.298Z,19.70
2022-10-01T10:25:39.781Z,18.00
2022-10-01T10:28:33.556Z,18.70
2022-10-01T10:31:32.420Z,27.80
2022-10-01T10:34:32.314Z,18.48
2022-10-01T10:37:29.301Z,20.92
2022-10-01T10:40:32.613Z,18.80
2022-10-01T10:43:24.469Z,19.80
2022-10-01T10:46:16.421Z,20.80
2022-10-01T10:52:16.309Z,14.60
2022-10-01T10:55:00.508Z,16.83
2022-10-01T10:57:49.408Z,26.38
2022-10-01T11:00:37.617Z,26.00
2022-10-01T11:03:25.327Z,22.58
2022-10-01T11:06:23.159Z,17.65
2022-10-01T11:09:16.270Z,26.80
2022-10-01T11:12:10.623Z,17.80
2022-10-01T11:15:22.343Z,18.77
2022-10-01T11:18:28.286Z,22.38
2022-10-01T11:21:43.669Z,15.07
2022-10-01T11:25:13.299Z,25.38
2022-10-01T11:28:30.367Z,18.17
2022-10-01T11:31:38.647Z,17.83
2022-10-01T11:34:57.280Z,20.98
2022-10-01T11:38:04.034Z,18.35
2022-10-01T11:40:58.173Z,12.70
2022-10-01T11:44:11.197Z,18.67
2022-10-01T11:47:28.267Z,16.98
2022-10-01T11:50:46.274Z,18.55
2022-10-01T11:53:46.296Z,20.48
2022-10-01T11:56:53.075Z,11.73
2022-10-01T11:59:52.318Z,18.05
2022-10-01T12:03:12.344Z,20.48
2022-10-01T12:05:58.010Z,25.33
2022-10-01T12:08:50.312Z,28.30
2022-10-01T12:12:00.243Z,31.88
2022-10-01T12:14:52.866Z,15.52
2022-10-01T12:17:53.263Z,37.60
2022-10-01T12:20:42.595Z,20.30
2022-10-01T12:23:39.258Z,25.48
2022-10-01T12:26:51.883Z,24.55
2022-10-01T12:29:52.378Z,24.30
2022-10-01T12:33:06.262Z,25.15
2022-10-01T12:39:27.580Z,23.13
2022-10-01T12:42:39.894Z,24.17
2022-10-01T12:45:36.619Z,23.40
2022-10-01T12:48:52.372Z,24.05
2022-10-01T12:52:19.189Z,26.55
2022-10-01T12:55:29.380Z,38.50
2022-10-01T12:58:35.710Z,23.70
2022-10-01T13:01:30.808Z,22.17
2022-10-01T13:04:48.642Z,27.98
2022-10-01T13:07:44.278Z,34.05
2022-10-01T13:11:03.466Z,28.13
2022-10-01T13:13:54.342Z,34.95
2022-10-01T13:16:57.410Z,27.42
2022-10-01T13:19:59.406Z,32.87
2022-10-01T13:23:15.689Z,37.15
2022-10-01T13:26:09.354Z,35.40
2022-10-01T13:29:16.339Z,33.03
2022-10-01T13:32:12.971Z,32.33
2022-10-01T13:34:57.904Z,35.08
2022-10-01T13:37:48.372Z,31.23
2022-10-01T13:40:34.692Z,36.22
2022-10-01T13:43:31.438Z,28.92
2022-10-01T13:46:18.673Z,37.25
2022-10-01T13:49:30.298Z,45.65
2022-10-01T13:52:36.117Z,36.97
2022-10-01T13:55:38.172Z,30.50
2022-10-01T13:58:34.811Z,34.00
2022-10-01T14:01:28.378Z,29.70
2022-10-01T14:04:49.979Z,22.05
2022-10-01T14:07:45.292Z,36.47
2022-10-01T14:10:27.711Z,34.15
2022-10-01T14:13:38.903Z,35.42
2022-10-01T14:16:23.261Z,36.63
2022-10-01T14:19:13.393Z,32.90
2022-10-01T14:22:28.794Z,28.48
2022-10-01T14:25:57.826Z,35.40
2022-10-01T14:29:09.192Z,33.28
2022-10-01T14:32:17.573Z,30.38
2022-10-01T14:35:20.358Z,40.80
2022-10-01T14:38:19.352Z,45.65
2022-10-01T14:41:10.330Z,30.95
2022-10-01T14:43:52.735Z,36.85
2022-10-01T14:46:41.642Z,29.25
2022-10-01T14:49:36.330Z,33.72
2022-10-01T14:52:28.572Z,40.72
2022-10-01T14:55:15.268Z,37.00
2022-10-01T14:58:05.307Z,30.70
2022-10-01T15:00:59.818Z,39.22
2022-10-01T15:03:51.326Z,37.47
2022-10-01T15:06:42.329Z,34.88
2022-10-01T15:09:32.342Z,38.85
2022-10-01T15:12:21.240Z,35.83
2022-10-01T15:15:10.344Z,47.65
2022-10-01T15:18:00.247Z,42.17
2022-10-01T15:21:00.246Z,32.63
2022-10-01T15:23:44.583Z,44.00
2022-10-01T15:26:37.497Z,31.95
2022-10-01T15:29:30.244Z,40.75
2022-10-01T15:32:25.452Z,34.67
2022-10-01T15:35:10.886Z,39.05
2022-10-01T15:38:09.337Z,39.28
2022-10-01T15:41:13.929Z,34.22
2022-10-01T15:44:12.277Z,50.15
2022-10-01T15:46:54.723Z,40.08
2022-10-01T15:49:43.349Z,39.33
2022-10-01T15:52:52.088Z,40.35
2022-10-01T15:55:57.417Z,37.72
2022-10-01T15:58:46.629Z,37.08
2022-10-01T16:01:46.367Z,38.65
2022-10-01T16:04:29.656Z,43.22
2022-10-01T16:07:30.543Z,34.20
2022-10-01T16:10:46.718Z,33.88
2022-10-01T16:13:46.444Z,41.03
2022-10-01T16:16:31.907Z,29.85
2022-10-01T16:19:31.245Z,37.72
2022-10-01T16:22:32.299Z,47.15
2022-10-01T16:25:32.265Z,33.58
2022-10-01T16:28:48.255Z,40.92
2022-10-01T16:31:39.376Z,38.08
2022-10-01T16:34:26.575Z,35.65
2022-10-01T16:37:17.274Z,38.40
2022-10-01T16:39:59.759Z,45.45
2022-10-01T16:42:50.332Z,40.13
2022-10-01T16:45:44.301Z,31.60
2022-10-01T16:48:26.858Z,36.22
2022-10-01T16:51:15.428Z,43.72
2022-10-01T16:54:05.602Z,28.95
2022-10-01T16:56:52.259Z,37.03
2022-10-01T16:59:35.218Z,32.53
2022-10-01T17:02:29.494Z,35.60
2022-10-01T17:05:29.650Z,33.45
2022-10-01T17:08:18.235Z,34.53
2022-10-01T17:11:12.504Z,30.88
2022-10-01T17:14:01.205Z,29.73
2022-10-01T17:16:44.236Z,29.33
2022-10-01T17:19:33.680Z,27.95
2022-10-01T17:22:15.540Z,28.05
2022-10-01T17:25:04.336Z,30.20
2022-10-01T17:27:54.366Z,26.92
2022-10-01T17:30:37.763Z,28.30
2022-10-01T17:33:27.366Z,31.45
2022-10-01T17:36:16.368Z,23.95
2022-10-01T17:39:05.337Z,33.83
2022-10-01T17:41:54.275Z,39.60
2022-10-01T17:44:36.744Z,30.85
2022-10-01T17:47:25.169Z,28.77
2022-10-01T17:50:15.236Z,36.80
2022-10-01T17:53:09.700Z,25.85
2022-10-01T17:55:54.388Z,24.30
2022-10-01T17:58:39.555Z,27.05
2022-10-01T18:01:33.292Z,29.65
2022-10-01T18:04:22.682Z,22.73
2022-10-01T18:07:06.289Z,27.27
2022-10-01T18:09:55.658Z,24.52
2022-10-01T18:12:38.280Z,31.02
2022-10-01T18:15:27.816Z,27.95
2022-10-01T18:19:45.775Z,31.92
2022-10-01T18:21:21.353Z,27.88
2022-10-01T18:24:05.013Z,26.63
2022-10-01T18:26:54.391Z,30.15
2022-10-01T18:29:36.733Z,31.92
2022-10-01T18:32:31.226Z,27.73
2022-10-01T18:35:24.800Z,29.70
2022-10-01T18:38:36.268Z,26.90
2022-10-01T18:41:34.722Z,32.08
2022-10-01T18:44:26.259Z,28.80
2022-10-01T18:47:35.697Z,31.80
2022-10-01T18:50:40.273Z,27.63
2022-10-01T18:53:45.938Z,29.45
2022-10-01T18:56:43.153Z,29.33
2022-10-01T18:59:46.255Z,26.88
2022-10-01T19:02:31.214Z,28.20
2022-10-01T19:05:58.277Z,29.40
2022-10-01T19:08:52.629Z,27.55
2022-10-01T19:11:59.257Z,32.08
2022-10-01T19:15:11.255Z,29.88
2022-10-01T19:18:14.671Z,27.48
2022-10-01T19:21:37.163Z,33.37
2022-10-01T19:24:34.683Z,27.60
2022-10-01T19:27:35.251Z,34.17
2022-10-01T19:30:24.673Z,35.92
2022-10-01T19:33:20.303Z,29.70
2022-10-01T19:36:07.944Z,29.80
2022-10-01T19:39:02.322Z,33.33
2022-10-01T19:41:57.672Z,31.33
2022-10-01T19:44:53.203Z,34.85
2022-10-01T19:47:53.591Z,29.85
2022-10-01T19:50:47.147Z,30.30
2022-10-01T19:53:48.259Z,28.17
2022-10-01T19:56:42.971Z,27.98
2022-10-01T19:59:27.176Z,32.42
2022-10-01T20:02:41.963Z,27.50
2022-10-01T20:05:30.186Z,35.38
2022-10-01T20:08:28.805Z,33.22
2022-10-01T20:11:29.174Z,33.53
2022-10-01T20:14:41.529Z,33.55
2022-10-01T20:17:52.273Z,45.30
2022-10-01T20:21:04.581Z,28.23
2022-10-01T20:23:56.260Z,32.25
2022-10-01T20:27:14.152Z,29.98
2022-10-01T20:30:15.537Z,33.22
2022-10-01T20:33:18.250Z,28.85
2022-10-01T20:36:34.638Z,30.60
2022-10-01T20:39:27.580Z,31.33
2022-10-01T20:42:26.243Z,35.63
2022-10-01T20:45:17.250Z,33.83
2022-10-01T20:48:20.949Z,28.80
2022-10-01T20:51:27.265Z,33.22
2022-10-01T20:54:17.808Z,36.42
2022-10-01T20:57:17.249Z,29.67
2022-10-01T21:00:04.717Z,40.97
2022-10-01T21:02:59.183Z,32.97
2022-10-01T21:05:50.811Z,41.20
2022-10-01T21:09:15.209Z,32.88
2022-10-01T21:12:27.533Z,39.80
2022-10-01T21:15:25.299Z,39.17
2022-10-01T21:18:35.547Z,32.53
2022-10-01T21:21:41.238Z,30.02
2022-10-01T21:24:35.534Z,29.10
2022-10-01T21:27:36.247Z,28.45
2022-10-01T21:30:21.592Z,31.83
2022-10-01T21:33:23.237Z,28.98
2022-10-01T21:36:10.057Z,34.40
2022-10-01T21:39:04.271Z,34.40
2022-10-01T21:41:56.630Z,36.17
2022-10-01T21:44:54.247Z,29.65
2022-10-01T21:48:06.142Z,28.90
2022-10-01T21:51:02.254Z,25.95
2022-10-01T21:54:03.100Z,38.40
2022-10-01T21:57:13.300Z,29.48
2022-10-01T22:00:20.039Z,38.58
2022-10-01T22:03:27.241Z,28.73
2022-10-01T22:06:37.284Z,29.60
2022-10-01T22:09:40.319Z,31.48
2022-10-01T22:12:24.105Z,29.98
2022-10-01T22:15:31.275Z,32.83
2022-10-01T22:18:19.544Z,31.27
2022-10-01T22:21:13.176Z,31.88
2022-10-01T22:24:18.157Z,36.05
2022-10-01T22:27:26.298Z,33.00
2022-10-01T22:30:43.524Z,34.30
2022-10-01T22:33:48.246Z,35.15
2022-10-01T22:36:42.570Z,32.25
2022-10-01T22:39:42.154Z,26.95
2022-10-01T22:42:31.594Z,27.48
2022-10-01T22:45:32.297Z,33.05
2022-10-01T22:48:48.520Z,37.28
2022-10-01T22:51:36.242Z,27.15
2022-10-01T22:54:51.550Z,34.97
2022-10-01T22:57:58.289Z,32.88
2022-10-01T23:01:12.261Z,29.27
2022-10-01T23:04:29.240Z,36.72
2022-10-01T23:07:25.224Z,35.60
2022-10-01T23:10:32.240Z,33.13
2022-10-01T23:13:37.063Z,35.45
2022-10-01T23:16:40.422Z,38.88
2022-10-01T23:19:41.575Z,27.83
2022-10-01T23:22:41.249Z,27.20
2022-10-01T23:25:36.974Z,29.55
2022-10-01T23:28:55.233Z,34.95
2022-10-01T23:31:46.308Z,40.15
2022-10-01T23:34:47.292Z,33.17
2022-10-01T23:38:18.686Z,34.50
2022-10-01T23:41:02.295Z,35.20
2022-10-01T23:43:50.632Z,33.97
2022-10-01T23:46:45.162Z,27.70
2022-10-01T23:49:38.566Z,37.05
2022-10-01T23:52:41.260Z,32.40
2022-10-01T23:56:12.156Z,35.58
2022-10-01T23:59:08.240Z,34.08
